Terminal Aerodrome Forecast
Issued by NWS Mt. Holly, NJ

Home | Current Version | Previous Version | Text Only | Print | Product List | Glossary On
Versions: 1 2 3 4 5 6 7 8 9 10 11 12 13 14 15 16 17 18 19 20 21 22 23 24 25 26 27 28 29
000
FTUS41 KPHI 230520
TAFILG
TAF
KILG 230520Z 2306/2406 06019G27KT 5SM -RADZ BR OVC010
     FM231200 06025G35KT 3SM -RA BR OVC007 WS020/08050KT
     FM240000 03020G30KT 2SM -RA BR OVC007 WS020/08055KT=

USA.gov is the U.S. government's official web portal to all federal, state and local government web resources and services.